Stayner, Canada
Current Conditions -  °F | °C
As of 2:06 AM on Friday 19 Dec 2014 (Local Time) from CYBN Reporting Station
Overcast Overcast  
Wind Chill: 11°   Ceiling: 900
Heat Index: 23°   Visibility: 9mi
Dew Point: 21°   Wind: 13mph
Humidity: 93%   Direction: 340°NNW
Pressure: 30.1"   Gusts: NA
Location:  44.42°N, 80.09°W
Report Text: CYBN 190706Z AUTO 34011KT 9SM OVC009 M05/M06 A3010
Loading
Personal Weather Stations






























Interactive Weather Map New forecast layout! Learn more

10-Day Weather Forecast

Advertisements
Track Severe Weather on mobile